createdAt,value
2023-04-08T00:00:25.371Z,245.76
2023-04-08T00:01:25.379Z,238.48
2023-04-08T00:02:25.573Z,243.72
2023-04-08T00:03:25.647Z,241.28
2023-04-08T00:04:25.678Z,236.57
2023-04-08T00:05:25.504Z,242.16
2023-04-08T00:06:25.512Z,232.56
2023-04-08T00:07:25.521Z,244.71
2023-04-08T00:08:25.541Z,245.52
2023-04-08T00:09:25.577Z,249.29
2023-04-08T00:10:25.591Z,249.50
2023-04-08T00:11:25.649Z,243.55
2023-04-08T00:12:25.661Z,248.06
2023-04-08T00:13:25.702Z,247.77
2023-04-08T00:14:25.730Z,237.51
2023-04-08T00:15:25.772Z,239.73
2023-04-08T00:16:25.772Z,250.00
2023-04-08T00:17:25.833Z,247.04
2023-04-08T00:18:25.820Z,233.30
2023-04-08T00:19:25.827Z,243.60
2023-04-08T00:20:25.850Z,241.31
2023-04-08T00:21:25.873Z,250.00
2023-04-08T00:22:25.901Z,245.58
2023-04-08T00:23:25.919Z,246.96
2023-04-08T00:24:25.905Z,249.53
2023-04-08T00:25:26.016Z,237.04
2023-04-08T00:26:25.943Z,244.05
2023-04-08T00:27:25.973Z,234.60
2023-04-08T00:28:25.977Z,247.23
2023-04-08T00:29:25.975Z,241.38
2023-04-08T00:30:26.001Z,239.04
2023-04-08T00:31:26.094Z,232.71
2023-04-08T00:32:26.035Z,240.13
2023-04-08T00:33:26.020Z,246.11
2023-04-08T00:34:26.071Z,243.35
2023-04-08T00:35:26.132Z,245.16
2023-04-08T00:36:26.137Z,246.59
2023-04-08T00:37:26.143Z,250.00
2023-04-08T00:38:26.197Z,232.50
2023-04-08T00:39:26.214Z,237.52
2023-04-08T00:40:26.238Z,243.83
2023-04-08T00:41:26.253Z,247.45
2023-04-08T00:42:26.273Z,242.84
2023-04-08T00:43:26.309Z,228.06
2023-04-08T00:44:26.316Z,227.55
2023-04-08T00:45:26.319Z,215.70
2023-04-08T00:46:26.396Z,234.57
2023-04-08T00:47:26.409Z,234.61
2023-04-08T00:48:26.439Z,227.83
2023-04-08T00:49:26.454Z,222.10
2023-04-08T00:50:26.494Z,230.82
2023-04-08T00:51:26.488Z,219.96
2023-04-08T00:52:26.556Z,214.80
2023-04-08T00:53:26.531Z,212.86
2023-04-08T00:54:26.551Z,212.61
2023-04-08T00:55:26.573Z,222.72
2023-04-08T00:56:26.633Z,218.82
2023-04-08T00:57:26.647Z,225.55
2023-04-08T00:58:26.648Z,232.44
2023-04-08T00:59:26.655Z,221.77
2023-04-08T01:00:26.672Z,223.35
2023-04-08T01:01:26.708Z,215.48
2023-04-08T01:02:26.975Z,221.78
2023-04-08T01:03:26.753Z,222.46
2023-04-08T01:04:26.734Z,209.29
2023-04-08T01:05:26.817Z,209.24
2023-04-08T01:06:26.752Z,209.82
2023-04-08T01:07:26.761Z,209.67
2023-04-08T01:08:26.769Z,207.58
2023-04-08T01:09:26.795Z,205.32
2023-04-08T01:10:26.838Z,214.27
2023-04-08T01:11:26.849Z,208.89
2023-04-08T01:12:26.914Z,208.66
2023-04-08T01:13:26.888Z,210.57
2023-04-08T01:14:26.934Z,211.36
2023-04-08T01:15:26.925Z,211.21
2023-04-08T01:16:27.039Z,220.07
2023-04-08T01:17:26.981Z,216.86
2023-04-08T01:18:26.980Z,209.92
2023-04-08T01:19:26.997Z,210.25
2023-04-08T01:20:26.964Z,218.13
2023-04-08T01:21:27.002Z,220.01
2023-04-08T01:22:27.022Z,218.59
2023-04-08T01:23:27.048Z,224.94
2023-04-08T01:24:27.039Z,219.56
2023-04-08T01:25:27.091Z,217.22
2023-04-08T01:26:27.099Z,218.68
2023-04-08T01:27:27.127Z,219.87
2023-04-08T01:28:27.107Z,221.17
2023-04-08T01:29:27.136Z,225.66
2023-04-08T01:30:27.145Z,222.37
2023-04-08T01:31:27.212Z,220.28
2023-04-08T01:32:27.273Z,220.81
2023-04-08T01:33:27.208Z,222.81
2023-04-08T01:34:27.219Z,226.04
2023-04-08T01:35:27.250Z,232.71
2023-04-08T01:36:27.293Z,227.08
2023-04-08T01:37:27.366Z,232.52
2023-04-08T01:38:27.320Z,239.67
2023-04-08T01:39:27.334Z,230.09
2023-04-08T01:40:27.340Z,231.44
2023-04-08T01:41:27.366Z,228.90
2023-04-08T01:42:27.380Z,226.57
2023-04-08T01:43:27.373Z,229.17
2023-04-08T01:44:27.384Z,224.93
2023-04-08T01:45:27.394Z,228.15
2023-04-08T01:46:27.450Z,225.35
2023-04-08T01:47:27.428Z,236.82
2023-04-08T01:48:27.410Z,235.07
2023-04-08T01:49:27.433Z,233.02
2023-04-08T01:50:27.442Z,235.51
2023-04-08T01:51:27.462Z,233.83
2023-04-08T01:52:27.480Z,233.27
2023-04-08T01:53:27.516Z,231.88
2023-04-08T01:54:27.495Z,246.93
2023-04-08T01:55:27.506Z,246.87
2023-04-08T01:56:27.543Z,235.62
2023-04-08T01:57:27.555Z,240.03
2023-04-08T01:58:27.576Z,230.42
2023-04-08T01:59:27.578Z,245.86
2023-04-08T02:00:27.610Z,245.07
2023-04-08T02:01:27.685Z,238.61
2023-04-08T02:02:27.777Z,227.97
2023-04-08T02:03:28.016Z,226.61
2023-04-08T02:04:27.764Z,240.24
2023-04-08T02:05:27.731Z,237.99
2023-04-08T02:06:27.737Z,238.60
2023-04-08T02:07:27.847Z,234.03
2023-04-08T02:08:27.784Z,234.26
2023-04-08T02:09:27.816Z,238.16
2023-04-08T02:10:27.821Z,228.16
2023-04-08T02:11:27.828Z,244.67
2023-04-08T02:12:27.838Z,240.97
2023-04-08T02:13:27.850Z,234.59
2023-04-08T02:14:27.868Z,224.78
2023-04-08T02:15:27.901Z,221.48
2023-04-08T02:16:27.948Z,238.69
2023-04-08T02:17:28.000Z,244.50
2023-04-08T02:18:27.945Z,248.74
2023-04-08T02:19:27.920Z,241.41
2023-04-08T02:20:27.948Z,247.03
2023-04-08T02:21:27.989Z,232.34
2023-04-08T02:22:28.001Z,228.83
2023-04-08T02:23:27.994Z,234.54
2023-04-08T02:24:28.019Z,237.41
2023-04-08T02:25:28.025Z,233.11
2023-04-08T02:26:28.036Z,243.26
2023-04-08T02:27:28.051Z,242.29
2023-04-08T02:28:28.041Z,232.47
2023-04-08T02:29:28.033Z,239.29
2023-04-08T02:30:28.052Z,235.68
2023-04-08T02:31:28.108Z,235.13
2023-04-08T02:32:28.121Z,235.65
2023-04-08T02:33:28.091Z,223.21
2023-04-08T02:34:28.088Z,231.89
2023-04-08T02:35:28.124Z,223.34
2023-04-08T02:36:28.104Z,230.07
2023-04-08T02:37:28.138Z,221.44
2023-04-08T02:38:28.128Z,226.60
2023-04-08T02:39:28.131Z,233.60
2023-04-08T02:40:28.182Z,231.63
2023-04-08T02:41:28.131Z,228.17
2023-04-08T02:42:28.157Z,229.73
2023-04-08T02:43:28.166Z,234.39
2023-04-08T02:44:28.163Z,245.63
2023-04-08T02:45:28.225Z,239.08
2023-04-08T02:46:28.186Z,238.38
2023-04-08T02:47:28.224Z,237.54
2023-04-08T02:48:28.197Z,241.04
2023-04-08T02:49:28.206Z,241.40
2023-04-08T02:50:28.221Z,236.33
2023-04-08T02:51:28.209Z,248.60
2023-04-08T02:52:28.249Z,246.78
2023-04-08T02:53:28.249Z,238.76
2023-04-08T02:54:28.242Z,241.60
2023-04-08T02:55:28.249Z,248.90
2023-04-08T02:56:28.256Z,249.38
2023-04-08T02:57:28.288Z,237.86
2023-04-08T02:58:28.291Z,245.97
2023-04-08T02:59:28.271Z,246.59
2023-04-08T03:00:28.297Z,249.65
2023-04-08T03:01:28.392Z,249.46
2023-04-08T03:02:28.422Z,239.91
2023-04-08T03:03:28.317Z,247.94
2023-04-08T03:04:28.324Z,243.16
2023-04-08T03:05:28.329Z,240.73
2023-04-08T03:06:28.355Z,239.96
2023-04-08T03:07:28.367Z,243.70
2023-04-08T03:08:28.345Z,243.74
2023-04-08T03:09:28.368Z,241.88
2023-04-08T03:10:28.383Z,241.27
2023-04-08T03:11:28.405Z,242.76
2023-04-08T03:12:28.421Z,236.65
2023-04-08T03:13:28.402Z,240.18
2023-04-08T03:14:28.408Z,244.27
2023-04-08T03:15:28.425Z,237.49
2023-04-08T03:16:28.445Z,233.52
2023-04-08T03:17:28.472Z,238.75
2023-04-08T03:18:28.412Z,233.10
2023-04-08T03:19:28.425Z,241.00
2023-04-08T03:20:28.427Z,235.71
2023-04-08T03:21:28.407Z,230.52
2023-04-08T03:22:28.435Z,232.67
2023-04-08T03:23:28.420Z,231.17
2023-04-08T03:24:28.417Z,236.38
2023-04-08T03:25:28.420Z,239.49
2023-04-08T03:26:28.395Z,232.78
2023-04-08T03:27:28.397Z,231.05
2023-04-08T03:28:28.398Z,222.06
2023-04-08T03:29:28.410Z,227.89
2023-04-08T03:30:28.412Z,234.07
2023-04-08T03:31:28.422Z,234.28
2023-04-08T03:32:28.425Z,229.18
2023-04-08T03:33:28.407Z,230.22
2023-04-08T03:34:28.381Z,238.81
2023-04-08T03:35:28.446Z,234.88
2023-04-08T03:36:28.408Z,236.78
2023-04-08T03:37:28.392Z,230.86
2023-04-08T03:38:28.407Z,236.48
2023-04-08T03:39:28.407Z,231.71
2023-04-08T03:40:28.424Z,227.60
2023-04-08T03:41:28.406Z,230.55
2023-04-08T03:42:28.407Z,226.93
2023-04-08T03:43:28.408Z,232.30
2023-04-08T03:44:28.387Z,229.77
2023-04-08T03:45:28.402Z,237.57
2023-04-08T03:46:28.503Z,233.34
2023-04-08T03:47:28.419Z,236.90
2023-04-08T03:48:28.425Z,235.85
2023-04-08T03:49:28.418Z,233.16
2023-04-08T03:50:28.423Z,236.64
2023-04-08T03:51:28.448Z,241.50
2023-04-08T03:52:28.436Z,234.02
2023-04-08T03:53:28.415Z,245.58
2023-04-08T03:54:28.410Z,238.99
2023-04-08T03:55:28.429Z,226.49
2023-04-08T03:56:28.419Z,235.58
2023-04-08T03:57:28.440Z,233.16
2023-04-08T03:58:28.447Z,232.58
2023-04-08T03:59:28.432Z,234.51
2023-04-08T04:00:28.432Z,235.50
2023-04-08T04:01:28.526Z,231.07
2023-04-08T04:02:28.640Z,240.24
2023-04-08T04:03:28.582Z,230.33
2023-04-08T04:04:28.630Z,244.59
2023-04-08T04:05:28.505Z,238.45
2023-04-08T04:06:28.522Z,231.73
2023-04-08T04:07:28.523Z,233.76
2023-04-08T04:08:28.496Z,232.67
2023-04-08T04:09:28.505Z,230.41
2023-04-08T04:10:28.507Z,232.38
2023-04-08T04:11:28.508Z,225.05
2023-04-08T04:12:28.518Z,229.34
2023-04-08T04:13:28.482Z,230.14
2023-04-08T04:14:28.479Z,228.35
2023-04-08T04:15:28.494Z,223.45
2023-04-08T04:16:29.401Z,225.18
2023-04-08T04:17:28.528Z,224.42
2023-04-08T04:18:28.538Z,215.06
2023-04-08T04:19:28.487Z,221.07
2023-04-08T04:20:28.481Z,222.37
2023-04-08T04:21:28.496Z,216.19
2023-04-08T04:22:28.474Z,202.86
2023-04-08T04:23:28.491Z,209.81
2023-04-08T04:24:28.466Z,217.81
2023-04-08T04:25:28.466Z,221.68
2023-04-08T04:26:28.482Z,218.20
2023-04-08T04:27:28.493Z,219.64
2023-04-08T04:28:28.467Z,222.54
2023-04-08T04:29:28.481Z,210.99
2023-04-08T04:30:28.476Z,223.03
2023-04-08T04:31:28.521Z,233.40
2023-04-08T04:32:28.486Z,222.29
2023-04-08T04:33:28.493Z,226.90
2023-04-08T04:34:28.485Z,226.42
2023-04-08T04:35:28.579Z,231.81
2023-04-08T04:36:28.492Z,228.71
2023-04-08T04:37:28.529Z,232.63
2023-04-08T04:38:28.490Z,226.87
2023-04-08T04:39:28.495Z,226.58
2023-04-08T04:40:28.483Z,233.72
2023-04-08T04:41:28.488Z,235.12
2023-04-08T04:42:28.502Z,242.54
2023-04-08T04:43:28.513Z,243.00
2023-04-08T04:44:28.514Z,247.36
2023-04-08T04:45:28.501Z,247.92
2023-04-08T04:46:28.615Z,249.39
2023-04-08T04:47:28.566Z,245.06
2023-04-08T04:48:28.518Z,242.62
2023-04-08T04:49:28.517Z,250.00
2023-04-08T04:50:28.549Z,247.02
2023-04-08T04:51:28.539Z,244.88
2023-04-08T04:52:28.554Z,245.87
2023-04-08T04:53:28.572Z,242.87
2023-04-08T04:54:28.576Z,245.47
2023-04-08T04:55:28.586Z,249.40
2023-04-08T04:56:28.628Z,245.38
2023-04-08T04:57:28.611Z,246.15
2023-04-08T04:58:28.595Z,246.45
2023-04-08T04:59:28.613Z,246.92
2023-04-08T05:00:28.641Z,237.41
2023-04-08T05:01:28.653Z,236.62
2023-04-08T05:02:28.818Z,235.64
2023-04-08T05:03:28.692Z,248.92
2023-04-08T05:04:28.643Z,241.64
2023-04-08T05:05:28.748Z,244.23
2023-04-08T05:06:28.629Z,244.05
2023-04-08T05:07:28.703Z,244.63
2023-04-08T05:08:28.642Z,247.32
2023-04-08T05:09:28.655Z,238.37
2023-04-08T05:10:28.652Z,244.12
2023-04-08T05:11:28.639Z,238.36
2023-04-08T05:12:28.655Z,242.86
2023-04-08T05:13:28.647Z,231.84
2023-04-08T05:14:28.662Z,240.41
2023-04-08T05:15:28.707Z,239.34
2023-04-08T05:16:28.747Z,237.45
2023-04-08T05:17:28.731Z,243.28
2023-04-08T05:18:28.725Z,239.63
2023-04-08T05:19:28.721Z,239.55
2023-04-08T05:20:28.717Z,237.31
2023-04-08T05:21:28.739Z,240.73
2023-04-08T05:22:28.729Z,239.42
2023-04-08T05:23:28.742Z,230.83
2023-04-08T05:24:28.729Z,232.77
2023-04-08T05:25:28.733Z,236.87
2023-04-08T05:26:28.725Z,236.03
2023-04-08T05:27:28.775Z,235.85
2023-04-08T05:28:28.762Z,233.15
2023-04-08T05:29:28.752Z,233.37
2023-04-08T05:30:28.738Z,235.45
2023-04-08T05:31:28.760Z,236.84
2023-04-08T05:32:28.772Z,239.36
2023-04-08T05:33:28.756Z,243.21
2023-04-08T05:34:28.760Z,238.84
2023-04-08T05:35:28.836Z,236.51
2023-04-08T05:36:28.780Z,240.38
2023-04-08T05:37:28.791Z,240.77
2023-04-08T05:38:28.797Z,241.42
2023-04-08T05:39:28.785Z,244.44
2023-04-08T05:40:28.783Z,243.31
2023-04-08T05:41:28.805Z,246.14
2023-04-08T05:42:28.794Z,240.75
2023-04-08T05:43:28.817Z,243.93
2023-04-08T05:44:28.796Z,240.69
2023-04-08T05:45:28.814Z,240.76
2023-04-08T05:46:28.892Z,246.42
2023-04-08T05:47:28.873Z,239.50
2023-04-08T05:48:28.839Z,243.93
2023-04-08T05:49:28.840Z,243.55
2023-04-08T05:50:28.852Z,237.97
2023-04-08T05:51:28.867Z,240.58
2023-04-08T05:52:28.859Z,242.27
2023-04-08T05:53:28.882Z,247.85
2023-04-08T05:54:28.884Z,245.46
2023-04-08T05:55:28.905Z,238.62
2023-04-08T05:56:28.916Z,241.29
2023-04-08T05:57:28.924Z,245.25
2023-04-08T05:58:28.948Z,241.72
2023-04-08T05:59:28.973Z,245.52
2023-04-08T06:00:28.985Z,245.75
2023-04-08T06:01:29.075Z,245.27
2023-04-08T06:02:29.112Z,249.44
2023-04-08T06:03:29.120Z,247.36
2023-04-08T06:04:29.171Z,241.29
2023-04-08T06:05:29.034Z,244.00
2023-04-08T06:06:29.043Z,247.47
2023-04-08T06:07:29.064Z,250.00
2023-04-08T06:08:29.064Z,244.93
2023-04-08T06:09:29.103Z,237.92
2023-04-08T06:10:29.084Z,234.63
2023-04-08T06:11:29.112Z,234.01
2023-04-08T06:12:29.119Z,236.87
2023-04-08T06:13:29.142Z,235.91
2023-04-08T06:14:29.148Z,226.19
2023-04-08T06:15:29.181Z,226.91
2023-04-08T06:16:29.222Z,228.69
2023-04-08T06:17:29.318Z,226.46
2023-04-08T06:18:29.239Z,231.28
2023-04-08T06:19:29.240Z,230.60
2023-04-08T06:20:29.299Z,236.31
2023-04-08T06:21:29.296Z,229.68
2023-04-08T06:22:29.299Z,227.32
2023-04-08T06:23:29.328Z,223.56
2023-04-08T06:24:29.359Z,220.98
2023-04-08T06:25:29.342Z,211.08
2023-04-08T06:26:29.359Z,211.93
2023-04-08T06:27:29.367Z,216.65
2023-04-08T06:28:29.434Z,213.80
2023-04-08T06:29:29.403Z,224.38
2023-04-08T06:30:29.442Z,222.77
2023-04-08T06:31:29.519Z,228.19
2023-04-08T06:32:29.598Z,225.75
2023-04-08T06:33:29.525Z,223.95
2023-04-08T06:34:29.519Z,222.39
2023-04-08T06:35:29.677Z,215.29
2023-04-08T06:36:29.636Z,217.72
2023-04-08T06:37:29.706Z,217.43
2023-04-08T06:38:29.736Z,214.87
2023-04-08T06:39:29.728Z,224.93
2023-04-08T06:40:29.752Z,226.60
2023-04-08T06:41:29.776Z,232.89
2023-04-08T06:42:29.791Z,233.98
2023-04-08T06:43:29.799Z,223.48
2023-04-08T06:44:29.800Z,220.05
2023-04-08T06:45:29.809Z,222.23
2023-04-08T06:46:29.830Z,220.21
2023-04-08T06:47:29.909Z,214.22
2023-04-08T06:48:29.893Z,214.01
2023-04-08T06:49:29.898Z,217.99
2023-04-08T06:50:29.914Z,227.39
2023-04-08T06:51:29.968Z,233.29
2023-04-08T06:52:29.959Z,245.62
2023-04-08T06:53:29.963Z,241.20
2023-04-08T06:54:29.979Z,242.30
2023-04-08T06:55:29.976Z,243.19
2023-04-08T06:56:29.982Z,248.15
2023-04-08T06:57:29.959Z,237.51
2023-04-08T06:58:29.960Z,237.12
2023-04-08T06:59:29.977Z,237.64
2023-04-08T07:00:29.956Z,247.95
2023-04-08T07:01:30.067Z,247.41
2023-04-08T07:02:30.057Z,241.46
2023-04-08T07:03:30.089Z,242.37
2023-04-08T07:04:30.039Z,241.35
2023-04-08T07:05:30.091Z,243.04
2023-04-08T07:06:30.142Z,237.25
2023-04-08T07:07:30.213Z,240.64
2023-04-08T07:08:30.293Z,230.16
2023-04-08T07:09:30.367Z,231.52
2023-04-08T07:10:30.405Z,232.25
2023-04-08T07:11:30.444Z,226.07
2023-04-08T07:12:30.523Z,226.40
2023-04-08T07:13:30.569Z,225.27
2023-04-08T07:14:30.647Z,224.50
2023-04-08T07:15:30.909Z,228.07
2023-04-08T07:16:30.760Z,226.71
2023-04-08T07:17:30.860Z,223.90
2023-04-08T07:18:30.868Z,222.71
2023-04-08T07:19:30.917Z,222.86
2023-04-08T07:20:32.216Z,218.63
2023-04-08T07:21:31.038Z,217.99
2023-04-08T07:22:31.082Z,219.94
2023-04-08T07:23:31.152Z,211.52
2023-04-08T07:24:31.222Z,213.93
2023-04-08T07:25:31.257Z,218.50
2023-04-08T07:26:31.318Z,222.76
2023-04-08T07:27:31.374Z,218.73
2023-04-08T07:28:31.416Z,221.87
2023-04-08T07:29:31.476Z,217.56
2023-04-08T07:30:31.570Z,211.98
2023-04-08T07:31:31.619Z,223.22
2023-04-08T07:32:31.669Z,218.67
2023-04-08T07:33:31.716Z,218.94
2023-04-08T07:34:31.779Z,216.19
2023-04-08T07:35:31.873Z,213.55
2023-04-08T07:36:31.880Z,215.31
2023-04-08T07:37:31.940Z,217.11
2023-04-08T07:38:32.008Z,221.56
2023-04-08T07:39:32.071Z,216.95
2023-04-08T07:40:32.110Z,219.10
2023-04-08T07:41:32.181Z,220.74
2023-04-08T07:42:32.235Z,215.44
2023-04-08T07:43:32.311Z,215.08
2023-04-08T07:44:32.351Z,218.71
2023-04-08T07:45:32.405Z,219.39
2023-04-08T07:46:32.505Z,216.79
2023-04-08T07:47:32.608Z,218.60
2023-04-08T07:48:32.606Z,216.97
2023-04-08T07:49:32.643Z,213.65
2023-04-08T07:50:32.688Z,212.86
2023-04-08T07:51:32.743Z,209.29
2023-04-08T07:52:32.866Z,206.89
2023-04-08T07:53:32.857Z,209.24
2023-04-08T07:54:32.933Z,204.10
2023-04-08T07:55:32.977Z,205.17
2023-04-08T07:56:33.048Z,202.76
2023-04-08T07:57:33.092Z,203.50
2023-04-08T07:58:33.233Z,199.44
2023-04-08T07:59:33.288Z,198.65
2023-04-08T08:00:33.261Z,191.43
2023-04-08T08:01:33.360Z,195.59
2023-04-08T08:02:33.455Z,187.37
2023-04-08T08:03:34.133Z,189.49
2023-04-08T08:04:33.589Z,192.60
2023-04-08T08:05:33.533Z,194.89
2023-04-08T08:06:33.597Z,194.46
2023-04-08T08:07:33.650Z,191.47
2023-04-08T08:08:33.678Z,190.55
2023-04-08T08:09:33.753Z,189.44
2023-04-08T08:10:33.795Z,186.38
2023-04-08T08:11:33.845Z,188.93
2023-04-08T08:12:33.899Z,186.79
2023-04-08T08:13:33.960Z,177.57
2023-04-08T08:14:34.015Z,169.68
2023-04-08T08:15:34.136Z,164.55
2023-04-08T08:16:34.152Z,171.04
2023-04-08T08:17:34.166Z,178.99
2023-04-08T08:18:34.206Z,170.50
2023-04-08T08:19:34.227Z,176.51
2023-04-08T08:20:34.267Z,167.76
2023-04-08T08:21:34.319Z,169.01
2023-04-08T08:22:36.661Z,172.62
2023-04-08T08:23:35.350Z,172.72
2023-04-08T08:24:34.357Z,172.92
2023-04-08T08:25:34.342Z,170.42
2023-04-08T08:26:34.325Z,161.20
2023-04-08T08:27:34.328Z,168.85
2023-04-08T08:28:34.305Z,162.59
2023-04-08T08:29:34.311Z,164.70
2023-04-08T08:30:34.327Z,174.67
2023-04-08T08:31:34.311Z,173.05
2023-04-08T08:32:34.322Z,180.73
2023-04-08T08:33:34.275Z,188.88
2023-04-08T08:34:34.267Z,192.86
2023-04-08T08:35:34.256Z,191.83
2023-04-08T08:36:34.907Z,196.38
2023-04-08T08:37:34.241Z,195.42
2023-04-08T08:38:34.244Z,196.89
2023-04-08T08:39:34.221Z,201.40
2023-04-08T08:40:34.263Z,189.77
2023-04-08T08:41:34.283Z,187.83
2023-04-08T08:42:34.437Z,184.38
2023-04-08T08:43:34.383Z,182.25
2023-04-08T08:44:34.333Z,189.17
2023-04-08T08:45:34.378Z,189.19
2023-04-08T08:46:34.473Z,183.21
2023-04-08T08:47:34.412Z,193.06
2023-04-08T08:48:34.410Z,190.17
2023-04-08T08:49:34.447Z,197.16
2023-04-08T08:50:34.502Z,194.88
2023-04-08T08:51:34.478Z,196.21
2023-04-08T08:52:34.494Z,198.61
2023-04-08T08:53:36.022Z,197.91
2023-04-08T08:54:34.546Z,199.61
2023-04-08T08:55:56.754Z,196.26
2023-04-08T08:56:35.536Z,196.27
2023-04-08T08:57:34.518Z,195.00
2023-04-08T08:58:34.512Z,192.13
2023-04-08T08:59:34.501Z,195.65
2023-04-08T09:00:34.855Z,189.38
2023-04-08T09:01:34.591Z,192.13
2023-04-08T09:02:34.636Z,201.05
2023-04-08T09:03:34.621Z,191.92
2023-04-08T09:04:34.629Z,187.36
2023-04-08T09:05:34.576Z,197.99
2023-04-08T09:06:34.464Z,194.52
2023-04-08T09:07:34.451Z,193.45
2023-04-08T09:08:34.447Z,194.70
2023-04-08T09:09:34.435Z,196.51
2023-04-08T09:10:34.430Z,193.90
2023-04-08T09:11:34.426Z,193.30
2023-04-08T09:12:34.398Z,192.45
2023-04-08T09:13:34.410Z,192.90
2023-04-08T09:14:34.383Z,194.65
2023-04-08T09:15:34.376Z,194.06
2023-04-08T09:16:34.420Z,191.07
2023-04-08T09:17:34.393Z,192.13
2023-04-08T09:18:34.367Z,193.19
2023-04-08T09:19:34.347Z,193.85
2023-04-08T09:20:34.341Z,200.19
2023-04-08T09:21:34.340Z,202.18
2023-04-08T09:22:34.337Z,201.69
2023-04-08T09:23:34.322Z,204.82
2023-04-08T09:24:34.317Z,199.84
2023-04-08T09:25:34.328Z,199.16
2023-04-08T09:26:34.310Z,202.39
2023-04-08T09:27:34.289Z,190.90
2023-04-08T09:28:34.273Z,194.17
2023-04-08T09:29:35.699Z,193.44
2023-04-08T09:30:34.262Z,198.18
2023-04-08T09:31:34.326Z,192.98
2023-04-08T09:32:34.307Z,192.19
2023-04-08T09:33:34.252Z,191.71
2023-04-08T09:34:34.616Z,189.64
2023-04-08T09:35:34.272Z,186.93
2023-04-08T09:36:34.245Z,189.84
2023-04-08T09:37:34.231Z,188.18
2023-04-08T09:38:34.223Z,184.49
2023-04-08T09:39:34.225Z,186.40
2023-04-08T09:40:34.195Z,185.54
2023-04-08T09:41:34.206Z,185.36
2023-04-08T09:42:34.197Z,183.19
2023-04-08T09:43:34.180Z,179.96
2023-04-08T09:44:34.204Z,175.85
2023-04-08T09:45:34.209Z,175.62
2023-04-08T09:46:34.218Z,182.69
2023-04-08T09:47:34.179Z,176.28
2023-04-08T09:48:34.209Z,174.38
2023-04-08T09:49:34.206Z,174.46
2023-04-08T09:50:34.166Z,174.60
2023-04-08T09:51:34.160Z,180.77
2023-04-08T09:52:34.231Z,177.32
2023-04-08T09:53:34.192Z,167.86
2023-04-08T09:54:34.207Z,167.90
2023-04-08T09:55:34.094Z,170.03
2023-04-08T09:56:34.076Z,172.27
2023-04-08T09:57:34.084Z,165.03
2023-04-08T09:58:34.073Z,164.99
2023-04-08T09:59:34.072Z,168.24
2023-04-08T10:00:34.046Z,164.26
2023-04-08T10:01:34.192Z,173.28
2023-04-08T10:02:34.187Z,164.74
2023-04-08T10:03:34.250Z,161.51
2023-04-08T10:04:34.084Z,164.39
2023-04-08T10:05:34.016Z,158.39
2023-04-08T10:06:33.999Z,153.05
2023-04-08T10:07:34.010Z,159.97
2023-04-08T10:08:34.003Z,159.15
2023-04-08T10:09:33.984Z,157.67
2023-04-08T10:10:34.009Z,153.69
2023-04-08T10:11:33.983Z,160.06
2023-04-08T10:12:33.968Z,163.05
2023-04-08T10:13:33.983Z,159.29
2023-04-08T10:14:33.952Z,149.55
2023-04-08T10:15:33.950Z,150.00
2023-04-08T10:16:33.955Z,143.49
2023-04-08T10:17:33.932Z,149.06
2023-04-08T10:18:33.935Z,145.94
2023-04-08T10:19:33.916Z,152.28
2023-04-08T10:20:33.906Z,154.55
2023-04-08T10:21:33.896Z,151.43
2023-04-08T10:22:33.915Z,152.31
2023-04-08T10:23:34.013Z,152.08
2023-04-08T10:24:33.887Z,147.12
2023-04-08T10:25:33.862Z,141.45
2023-04-08T10:26:33.854Z,141.08
2023-04-08T10:27:33.868Z,135.38
2023-04-08T10:28:33.846Z,129.86
2023-04-08T10:29:33.871Z,130.04
2023-04-08T10:30:33.843Z,136.14
2023-04-08T10:31:33.889Z,124.73
2023-04-08T10:32:33.844Z,110.79
2023-04-08T10:33:33.813Z,124.12
2023-04-08T10:34:33.821Z,122.60
2023-04-08T10:35:33.818Z,127.35
2023-04-08T10:36:33.844Z,122.38
2023-04-08T10:37:33.785Z,131.52
2023-04-08T10:38:33.782Z,123.50
2023-04-08T10:39:33.805Z,120.75
2023-04-08T10:40:33.763Z,120.06
2023-04-08T10:41:33.772Z,116.55
2023-04-08T10:42:33.765Z,117.50
2023-04-08T10:43:33.764Z,107.81
2023-04-08T10:44:33.735Z,105.86
2023-04-08T10:45:33.721Z,108.06
2023-04-08T10:46:33.755Z,108.28
2023-04-08T10:47:33.773Z,97.76
2023-04-08T10:48:33.708Z,107.74
2023-04-08T10:49:33.713Z,101.13
2023-04-08T10:50:33.700Z,99.49
2023-04-08T10:51:33.971Z,102.87
2023-04-08T10:52:33.697Z,100.13
2023-04-08T10:53:33.781Z,103.96
2023-04-08T10:54:33.669Z,98.44
2023-04-08T10:55:33.667Z,95.59
2023-04-08T10:56:33.636Z,92.83
2023-04-08T10:57:33.644Z,79.63
2023-04-08T10:58:33.632Z,87.51
2023-04-08T10:59:33.628Z,92.11
2023-04-08T11:00:33.625Z,82.02
2023-04-08T11:01:33.737Z,83.08
2023-04-08T11:02:33.794Z,80.26
2023-04-08T11:03:33.779Z,76.65
2023-04-08T11:04:33.792Z,80.89
2023-04-08T11:05:33.571Z,82.62
2023-04-08T11:06:33.566Z,76.49
2023-04-08T11:07:33.561Z,79.62
2023-04-08T11:08:33.572Z,80.94
2023-04-08T11:09:33.558Z,86.01
2023-04-08T11:10:33.534Z,78.42
2023-04-08T11:11:33.544Z,78.30
2023-04-08T11:12:33.528Z,73.64
2023-04-08T11:13:33.537Z,80.44
2023-04-08T11:14:33.525Z,74.24
2023-04-08T11:15:33.537Z,72.46
2023-04-08T11:16:33.507Z,67.33
2023-04-08T11:17:33.495Z,56.27
2023-04-08T11:18:33.491Z,62.52
2023-04-08T11:19:33.487Z,60.69
2023-04-08T11:20:33.467Z,75.20
2023-04-08T11:21:33.475Z,71.67
2023-04-08T11:22:33.508Z,80.70
2023-04-08T11:23:33.459Z,79.52
2023-04-08T11:24:33.457Z,66.28
2023-04-08T11:25:33.433Z,61.77
2023-04-08T11:26:33.445Z,60.11
2023-04-08T11:27:33.428Z,70.64
2023-04-08T11:28:33.431Z,74.05
2023-04-08T11:29:33.415Z,67.23
2023-04-08T11:30:33.417Z,55.50
2023-04-08T11:31:33.451Z,63.93
2023-04-08T11:32:33.441Z,55.47
2023-04-08T11:33:33.380Z,51.58
2023-04-08T11:34:33.373Z,42.76
2023-04-08T11:35:33.425Z,48.33
2023-04-08T11:36:33.373Z,60.14
2023-04-08T11:37:33.355Z,47.25
2023-04-08T11:38:33.361Z,48.79
2023-04-08T11:39:33.333Z,54.67
2023-04-08T11:40:33.337Z,43.57
2023-04-08T11:41:33.331Z,50.07
2023-04-08T11:42:33.315Z,45.27
2023-04-08T11:43:33.322Z,37.36
2023-04-08T11:44:33.348Z,36.69
2023-04-08T11:45:33.350Z,37.98
2023-04-08T11:46:33.364Z,36.03
2023-04-08T11:47:33.433Z,34.98
2023-04-08T11:48:33.346Z,35.02
2023-04-08T11:49:33.355Z,43.75
2023-04-08T11:50:33.347Z,43.18
2023-04-08T11:51:33.357Z,57.43
2023-04-08T11:52:33.367Z,61.50
2023-04-08T11:53:33.397Z,60.78
2023-04-08T11:54:33.412Z,55.61
2023-04-08T11:55:33.417Z,63.97
2023-04-08T11:56:33.427Z,46.62
2023-04-08T11:57:33.435Z,45.39
2023-04-08T11:58:33.433Z,51.08
2023-04-08T11:59:33.434Z,48.16
2023-04-08T12:00:33.473Z,45.51
2023-04-08T12:01:33.526Z,48.81
2023-04-08T12:02:33.585Z,63.75
2023-04-08T12:03:33.588Z,62.76
2023-04-08T12:04:33.616Z,58.66
2023-04-08T12:05:33.512Z,63.69
2023-04-08T12:06:33.508Z,61.16
2023-04-08T12:07:33.532Z,57.31
2023-04-08T12:08:33.553Z,40.05
2023-04-08T12:09:33.558Z,51.56
2023-04-08T12:10:33.560Z,65.36
2023-04-08T12:11:33.562Z,64.87
2023-04-08T12:12:33.598Z,64.28
2023-04-08T12:13:33.602Z,55.22
2023-04-08T12:14:33.599Z,36.27
2023-04-08T12:15:33.617Z,39.93
2023-04-08T12:16:33.680Z,40.08
2023-04-08T12:17:33.632Z,65.54
2023-04-08T12:18:33.646Z,68.62
2023-04-08T12:19:34.832Z,63.46
2023-04-08T12:20:33.647Z,37.50
2023-04-08T12:21:33.664Z,28.38
2023-04-08T12:22:33.680Z,31.86
2023-04-08T12:23:33.690Z,45.40
2023-04-08T12:24:33.690Z,48.87
2023-04-08T12:25:33.703Z,48.93
2023-04-08T12:26:33.718Z,61.46
2023-04-08T12:27:33.741Z,50.41
2023-04-08T12:28:33.744Z,54.94
2023-04-08T12:29:33.754Z,50.19
2023-04-08T12:30:33.784Z,46.16
2023-04-08T12:31:33.862Z,63.08